Time;durP1;ratioP1;P1;durP2;ratioP2;P2;SDS_P1;SDS_P2;PMS_P1;PMS_P2;Temp;Humidity;BMP_temperature;BMP_pressure;BME280_temperature;BME280_humidity;BME280_pressure;Samples;Min_cycle;Max_cycle;Signal;HPM_P1;HPM_P2
2022/04/06 00:01:39;;;;;;;115.60;52.30;;;7.90;99.90;;;;;;5063528;28;20386;-77
2022/04/06 00:04:05;;;;;;;113.50;51.08;;;7.80;99.90;;;;;;5065489;28;20021;-76
2022/04/06 00:06:31;;;;;;;103.10;47.72;;;7.80;99.90;;;;;;5063213;28;20134;-76
2022/04/06 00:08:57;;;;;;;100.95;45.47;;;7.80;99.90;;;;;;5064692;28;20127;-77
2022/04/06 00:11:23;;;;;;;92.55;41.28;;;7.80;99.90;;;;;;5065115;28;20119;-77
2022/04/06 00:13:50;;;;;;;85.32;40.00;;;7.70;99.90;;;;;;5063497;28;20021;-77
2022/04/06 00:16:16;;;;;;;90.60;40.55;;;7.70;99.90;;;;;;5064514;28;20429;-78
2022/04/06 00:18:42;;;;;;;93.38;40.97;;;7.60;99.90;;;;;;5064574;28;20048;-77
2022/04/06 00:21:08;;;;;;;94.93;43.83;;;7.60;99.90;;;;;;5062830;28;20060;-76
2022/04/06 00:23:34;;;;;;;116.03;51.22;;;7.60;99.90;;;;;;5064556;28;20056;-76
2022/04/06 00:26:00;;;;;;;113.45;52.88;;;7.60;99.90;;;;;;5064612;28;20529;-77
2022/04/06 00:28:26;;;;;;;117.93;53.92;;;7.50;99.90;;;;;;5045183;28;20037;-76
2022/04/06 00:30:52;;;;;;;109.85;50.90;;;7.50;99.90;;;;;;5064997;28;20048;-76
2022/04/06 00:33:18;;;;;;;108.43;48.92;;;7.50;99.90;;;;;;5063932;28;20029;-77
2022/04/06 00:35:44;;;;;;;100.70;44.40;;;7.40;99.90;;;;;;5063218;28;20074;-78
2022/04/06 00:38:10;;;;;;;87.90;38.17;;;7.50;99.90;;;;;;5046889;28;20108;-79
2022/04/06 00:40:37;;;;;;;90.53;36.15;;;7.40;99.90;;;;;;5063438;28;20024;-76
2022/04/06 00:43:08;;;;;;;71.13;32.45;;;7.40;99.90;;;;;;5063513;28;20620;-77
2022/04/06 00:45:34;;;;;;;70.28;31.08;;;7.30;99.90;;;;;;5062852;28;20029;-78
2022/04/06 00:48:00;;;;;;;73.97;28.35;;;7.30;99.90;;;;;;5063402;28;20029;-75
2022/04/06 00:50:27;;;;;;;59.80;25.55;;;7.30;99.90;;;;;;5064567;28;20032;-77
2022/04/06 00:52:56;;;;;;;52.08;22.02;;;7.30;99.90;;;;;;5062594;28;20025;-78
2022/04/06 00:55:25;;;;;;;48.42;22.83;;;7.20;99.90;;;;;;5045155;28;20070;-76
2022/04/06 00:57:51;;;;;;;63.90;28.35;;;7.20;99.90;;;;;;5062082;28;20040;-77
2022/04/06 01:00:17;;;;;;;99.05;37.92;;;7.10;99.90;;;;;;5063212;28;20079;-77
2022/04/06 01:02:43;;;;;;;77.55;31.75;;;7.10;99.90;;;;;;5064243;28;20052;-76
2022/04/06 01:05:09;;;;;;;71.93;30.98;;;7.00;99.90;;;;;;5062367;28;20085;-77
2022/04/06 01:07:35;;;;;;;76.05;32.05;;;7.00;99.90;;;;;;5063419;28;20036;-77
2022/04/06 01:10:01;;;;;;;79.47;34.15;;;7.00;99.90;;;;;;5063353;28;20021;-78
2022/04/06 01:12:28;;;;;;;80.55;31.58;;;7.10;99.90;;;;;;5062222;28;20047;-78
2022/04/06 01:14:57;;;;;;;80.50;30.48;;;7.00;99.90;;;;;;5045790;28;20024;-77
2022/04/06 01:17:23;;;;;;;88.03;32.28;;;7.00;99.90;;;;;;5063895;28;20078;-76
2022/04/06 01:19:51;;;;;;;91.65;36.33;;;7.00;99.90;;;;;;5056456;28;20037;-76
2022/04/06 01:22:20;;;;;;;83.80;32.08;;;6.90;99.90;;;;;;5036780;28;20048;-76
2022/04/06 01:24:48;;;;;;;56.88;25.02;;;6.90;99.90;;;;;;5053766;28;20467;-77
2022/04/06 01:27:14;;;;;;;57.75;23.08;;;6.80;99.90;;;;;;5053426;28;20063;-75
2022/04/06 01:29:41;;;;;;;61.55;24.55;;;6.80;99.90;;;;;;5053568;28;20100;-76
2022/04/06 01:32:11;;;;;;;61.13;24.63;;;6.80;99.90;;;;;;5053336;28;20109;-76
2022/04/06 01:34:39;;;;;;;59.13;24.77;;;6.80;99.90;;;;;;5053225;28;20088;-76
2022/04/06 01:37:06;;;;;;;66.07;25.90;;;6.70;99.90;;;;;;5053022;28;20060;-76
2022/04/06 01:39:34;;;;;;;56.65;25.83;;;6.70;99.90;;;;;;5053010;28;20017;-77
2022/04/06 01:42:01;;;;;;;55.63;22.45;;;6.70;99.90;;;;;;5035220;28;20028;-78
2022/04/06 01:44:28;;;;;;;48.92;21.75;;;6.70;99.90;;;;;;5053391;28;20017;-77
2022/04/06 01:46:54;;;;;;;47.63;20.70;;;6.70;99.90;;;;;;5053247;28;20052;-75
2022/04/06 01:52:14;;;;;;;47.50;20.00;;;6.60;99.90;;;;;;5052855;28;20031;-75
2022/04/06 01:54:44;;;;;;;43.58;18.02;;;6.60;99.90;;;;;;5035223;28;20522;-77
2022/04/06 01:57:10;;;;;;;36.80;17.27;;;6.50;99.90;;;;;;5052294;28;20032;-77
2022/04/06 01:59:36;;;;;;;46.63;18.63;;;6.50;99.90;;;;;;5053034;28;20040;-76
2022/04/06 02:02:04;;;;;;;38.20;17.88;;;6.50;99.90;;;;;;5053800;28;20487;-75
2022/04/06 02:04:30;;;;;;;41.67;18.33;;;6.50;99.90;;;;;;5035849;28;20037;-75
2022/04/06 02:06:56;;;;;;;42.95;19.08;;;6.40;99.90;;;;;;5053234;28;20104;-76
2022/04/06 02:09:21;;;;;;;38.13;18.80;;;6.40;99.90;;;;;;5035658;28;20484;-77
2022/04/06 02:11:48;;;;;;;60.42;22.80;;;6.40;99.90;;;;;;5053681;28;20387;-75
2022/04/06 02:14:14;;;;;;;59.20;24.45;;;6.40;99.90;;;;;;5053299;28;20419;-75
2022/04/06 02:16:41;;;;;;;60.08;24.98;;;6.30;99.90;;;;;;5035649;28;20029;-76
2022/04/06 02:19:06;;;;;;;64.25;27.73;;;6.30;99.90;;;;;;5052606;28;20032;-77
2022/04/06 02:21:33;;;;;;;53.97;24.88;;;6.30;99.90;;;;;;5053499;28;20037;-75
2022/04/06 02:23:59;;;;;;;57.42;25.17;;;6.30;99.90;;;;;;5052801;28;20072;-75
2022/04/06 02:26:27;;;;;;;52.00;24.35;;;6.30;99.90;;;;;;5053662;28;20025;-74
2022/04/06 02:28:53;;;;;;;53.17;21.98;;;6.20;99.90;;;;;;5053425;28;20021;-77
2022/04/06 02:31:19;;;;;;;54.58;23.88;;;6.20;99.90;;;;;;5035286;28;20087;-76
2022/04/06 02:33:45;;;;;;;51.67;22.13;;;6.20;99.90;;;;;;5052950;28;20464;-75
2022/04/06 02:36:11;;;;;;;50.10;22.02;;;6.10;99.90;;;;;;5035031;28;20036;-76
2022/04/06 02:38:38;;;;;;;57.20;23.75;;;6.10;99.90;;;;;;5034507;28;20021;-75
2022/04/06 02:41:08;;;;;;;53.90;23.95;;;6.10;99.90;;;;;;5053187;28;20033;-75
2022/04/06 02:43:34;;;;;;;64.43;25.38;;;6.10;99.90;;;;;;5035525;28;20047;-77
2022/04/06 02:46:01;;;;;;;58.30;24.98;;;6.10;99.90;;;;;;5053019;28;20025;-75
2022/04/06 02:48:26;;;;;;;54.42;25.92;;;6.10;99.90;;;;;;5052677;28;20029;-76
2022/04/06 02:50:53;;;;;;;57.15;26.25;;;6.10;99.90;;;;;;5034759;28;20374;-75
2022/04/06 02:53:18;;;;;;;73.05;29.45;;;6.00;99.90;;;;;;5052327;28;20033;-76
2022/04/06 02:55:44;;;;;;;63.47;28.63;;;6.00;99.90;;;;;;5052767;28;20029;-76
2022/04/06 02:58:10;;;;;;;64.50;27.48;;;6.00;99.90;;;;;;5052884;28;20045;-76
2022/04/06 03:00:36;;;;;;;58.05;25.77;;;5.90;99.90;;;;;;5052835;28;20463;-77
2022/04/06 03:03:02;;;;;;;55.50;23.70;;;5.90;99.90;;;;;;5052968;28;20083;-76
2022/04/06 03:05:29;;;;;;;52.88;22.73;;;5.90;99.90;;;;;;5053002;28;20039;-76
2022/04/06 03:07:55;;;;;;;56.78;23.27;;;5.90;99.90;;;;;;5052765;28;20040;-77
2022/04/06 03:10:20;;;;;;;55.42;25.05;;;5.80;99.90;;;;;;5035187;28;20025;-77
2022/04/06 03:12:46;;;;;;;63.08;25.48;;;5.80;99.90;;;;;;5052906;28;20466;-75
2022/04/06 03:15:12;;;;;;;61.90;24.38;;;5.80;99.90;;;;;;5052637;28;20029;-77
2022/04/06 03:17:38;;;;;;;60.55;23.27;;;5.80;99.90;;;;;;5035153;28;20036;-77
2022/04/06 03:20:05;;;;;;;54.15;20.58;;;5.90;99.90;;;;;;5034899;28;20132;-75
2022/04/06 03:22:31;;;;;;;58.85;19.70;;;5.80;99.90;;;;;;5053166;28;20029;-77
2022/04/06 03:24:57;;;;;;;51.03;19.80;;;5.70;99.90;;;;;;5034180;28;20021;-78
2022/04/06 03:27:23;;;;;;;49.97;19.65;;;5.60;99.90;;;;;;5034875;28;20029;-79
2022/04/06 03:29:49;;;;;;;50.67;19.67;;;5.60;99.90;;;;;;5052437;28;20464;-76
2022/04/06 03:32:15;;;;;;;59.72;19.98;;;5.50;99.90;;;;;;5035018;28;20452;-78
2022/04/06 03:34:41;;;;;;;48.90;20.73;;;5.50;99.90;;;;;;5052372;28;20426;-75
2022/04/06 03:37:07;;;;;;;55.65;21.08;;;5.50;99.90;;;;;;5055977;28;20035;-78
2022/04/06 03:39:34;;;;;;;62.40;23.83;;;5.50;99.90;;;;;;5055942;28;20395;-77
2022/04/06 03:42:00;;;;;;;51.25;23.15;;;5.50;99.90;;;;;;5055815;28;20025;-77
2022/04/06 03:44:26;;;;;;;52.20;21.67;;;5.40;99.90;;;;;;5056044;28;20379;-77
2022/04/06 03:46:53;;;;;;;57.17;24.00;;;5.50;99.90;;;;;;5055971;28;20053;-77
2022/04/06 03:49:19;;;;;;;60.90;26.23;;;5.40;99.90;;;;;;5055889;28;20025;-77
2022/04/06 03:51:45;;;;;;;72.03;26.60;;;5.50;99.90;;;;;;5055956;28;20033;-76
2022/04/06 03:54:11;;;;;;;81.03;29.45;;;5.50;99.90;;;;;;5056095;28;20033;-76
2022/04/06 03:56:38;;;;;;;82.43;29.98;;;5.40;99.90;;;;;;5056218;28;20113;-75
2022/04/06 03:59:04;;;;;;;86.90;33.58;;;5.40;99.90;;;;;;5055031;28;20044;-76
2022/04/06 04:01:31;;;;;;;91.55;32.90;;;5.50;99.90;;;;;;5065805;28;20033;-75
2022/04/06 04:03:57;;;;;;;98.47;36.08;;;5.50;99.90;;;;;;5076276;28;20032;-77
2022/04/06 04:06:23;;;;;;;94.07;35.40;;;5.50;99.90;;;;;;5072755;28;20031;-75
2022/04/06 04:08:49;;;;;;;90.03;34.70;;;5.50;99.90;;;;;;5075788;28;20020;-76
2022/04/06 04:11:15;;;;;;;94.10;36.08;;;5.40;99.90;;;;;;5069270;28;20518;-75
2022/04/06 04:13:40;;;;;;;102.53;42.47;;;5.40;99.90;;;;;;5055911;28;20029;-76
2022/04/06 04:16:06;;;;;;;101.82;41.60;;;5.50;99.90;;;;;;5041032;28;20029;-75
2022/04/06 04:18:32;;;;;;;114.28;43.53;;;5.50;99.90;;;;;;5075465;28;20425;-75
2022/04/06 04:23:42;;;;;;;94.78;37.42;;;5.40;99.90;;;;;;5055342;28;20498;-76
2022/04/06 04:26:08;;;;;;;88.68;37.20;;;5.40;99.90;;;;;;5057039;28;20025;-76
2022/04/06 04:28:34;;;;;;;94.75;37.33;;;5.40;99.90;;;;;;5075558;28;20035;-75
2022/04/06 04:31:00;;;;;;;90.65;35.92;;;5.40;99.90;;;;;;5069911;28;20037;-76
2022/04/06 04:33:26;;;;;;;93.05;36.00;;;5.40;99.90;;;;;;5074984;28;20028;-76
2022/04/06 04:35:52;;;;;;;93.43;37.63;;;5.40;99.90;;;;;;5075834;28;20032;-76
2022/04/06 04:38:18;;;;;;;87.53;34.65;;;5.40;99.90;;;;;;5074977;28;20103;-76
2022/04/06 04:40:44;;;;;;;92.95;34.83;;;5.40;99.90;;;;;;5057341;28;20444;-76
2022/04/06 04:43:10;;;;;;;114.65;45.03;;;5.50;99.90;;;;;;5075144;28;20379;-77
2022/04/06 04:45:35;;;;;;;303.70;115.60;;;5.50;99.90;;;;;;5066375;28;20099;-76
2022/04/06 04:48:01;;;;;;;194.75;82.93;;;5.50;99.90;;;;;;5059212;28;20422;-76
2022/04/06 04:50:27;;;;;;;146.95;65.70;;;5.60;99.90;;;;;;5055491;28;20033;-77
2022/04/06 04:52:53;;;;;;;181.30;73.38;;;5.70;99.90;;;;;;5037273;28;20633;-77
2022/04/06 04:55:19;;;;;;;162.77;68.95;;;5.70;99.90;;;;;;5037154;28;20054;-76
2022/04/06 04:57:45;;;;;;;140.55;65.57;;;5.80;99.90;;;;;;5043440;28;20391;-77
2022/04/06 05:00:11;;;;;;;122.13;55.40;;;5.80;99.90;;;;;;5074508;28;20467;-78
2022/04/06 05:02:37;;;;;;;80.95;40.38;;;5.80;99.90;;;;;;5074787;28;20024;-77
2022/04/06 05:05:07;;;;;;;88.88;37.85;;;5.90;99.90;;;;;;5076835;28;20499;-78
2022/04/06 05:07:37;;;;;;;76.65;33.67;;;5.90;99.90;;;;;;5086867;28;20024;-76
2022/04/06 05:10:12;;;;;;;49.40;22.13;;;5.90;99.90;;;;;;5095060;28;20081;-77
2022/04/06 05:12:38;;;;;;;41.38;19.83;;;5.90;99.90;;;;;;5093134;28;20024;-78
2022/04/06 05:15:05;;;;;;;41.50;18.23;;;5.80;99.90;;;;;;5094809;28;20031;-76
2022/04/06 05:17:31;;;;;;;38.65;19.05;;;5.80;99.90;;;;;;5093414;28;20024;-76
2022/04/06 05:19:57;;;;;;;31.38;15.52;;;5.90;99.90;;;;;;5094295;28;20030;-76
2022/04/06 05:22:23;;;;;;;28.00;14.07;;;6.00;99.90;;;;;;5094865;28;20063;-77
2022/04/06 05:24:49;;;;;;;29.48;14.27;;;6.10;99.90;;;;;;5093714;28;20028;-77
2022/04/06 05:27:14;;;;;;;24.63;11.82;;;6.30;99.90;;;;;;5092975;28;20030;-78
2022/04/06 05:29:42;;;;;;;23.20;10.75;;;6.40;99.90;;;;;;5093110;28;20512;-76
2022/04/06 05:32:08;;;;;;;22.92;11.00;;;6.60;99.90;;;;;;5093452;28;20071;-77
2022/04/06 05:34:35;;;;;;;30.17;13.27;;;6.70;99.90;;;;;;5094200;28;20481;-77
2022/04/06 05:37:04;;;;;;;31.88;14.10;;;6.80;99.90;;;;;;5092615;28;20111;-76
2022/04/06 05:39:30;;;;;;;29.05;14.07;;;6.90;99.90;;;;;;5094280;28;20063;-76
2022/04/06 05:41:56;;;;;;;27.42;13.90;;;7.00;99.90;;;;;;5094349;28;20055;-76
2022/04/06 05:44:22;;;;;;;36.00;17.95;;;7.00;99.90;;;;;;5094917;28;20024;-77
2022/04/06 05:46:48;;;;;;;33.38;16.58;;;7.20;99.90;;;;;;5094175;28;20024;-77
2022/04/06 05:49:14;;;;;;;35.80;15.20;;;7.30;99.90;;;;;;5094213;28;20063;-77
2022/04/06 05:51:39;;;;;;;55.38;24.20;;;7.40;99.90;;;;;;5094231;28;20027;-76
2022/04/06 05:54:05;;;;;;;40.85;20.58;;;7.60;99.90;;;;;;5093696;28;20024;-76
2022/04/06 05:56:31;;;;;;;41.80;15.80;;;7.70;99.90;;;;;;5093886;28;20419;-76
2022/04/06 05:58:58;;;;;;;32.17;16.35;;;7.80;99.90;;;;;;5078518;28;20053;-74
2022/04/06 06:01:24;;;;;;;33.30;17.13;;;8.00;99.90;;;;;;5073860;28;20078;-75
2022/04/06 06:03:50;;;;;;;41.50;20.23;;;8.10;99.90;;;;;;5073792;28;20028;-74
2022/04/06 06:06:15;;;;;;;47.83;20.33;;;8.30;99.90;;;;;;5055884;28;20495;-74
2022/04/06 06:08:41;;;;;;;37.40;18.65;;;8.50;99.90;;;;;;5073422;28;20021;-74
2022/04/06 06:11:08;;;;;;;33.92;16.33;;;8.70;99.90;;;;;;5055897;28;20439;-75
2022/04/06 06:13:34;;;;;;;34.13;17.67;;;8.90;99.90;;;;;;5074196;28;20356;-74
2022/04/06 06:16:00;;;;;;;42.72;23.60;;;9.20;99.90;;;;;;5073588;28;20028;-76
2022/04/06 06:18:27;;;;;;;44.97;21.88;;;9.30;99.90;;;;;;5073670;28;20025;-74
2022/04/06 06:20:53;;;;;;;51.72;20.98;;;9.50;99.90;;;;;;5073731;28;20111;-77
2022/04/06 06:23:19;;;;;;;35.13;18.33;;;9.70;99.90;;;;;;5073552;28;20025;-74
2022/04/06 06:25:45;;;;;;;32.55;15.77;;;10.00;99.90;;;;;;5073934;28;20025;-76
2022/04/06 06:28:11;;;;;;;35.47;15.93;;;10.10;99.90;;;;;;5073204;28;20028;-75
2022/04/06 06:30:37;;;;;;;32.58;14.30;;;10.20;99.90;;;;;;5073111;28;20032;-74
2022/04/06 06:33:03;;;;;;;27.40;14.30;;;10.40;99.90;;;;;;5055504;28;20524;-75
2022/04/06 06:35:28;;;;;;;27.45;12.57;;;10.60;99.90;;;;;;5073639;28;20032;-75
2022/04/06 06:37:56;;;;;;;29.15;14.18;;;10.90;99.90;;;;;;5073200;28;20066;-76
2022/04/06 06:40:24;;;;;;;22.40;12.52;;;11.00;99.90;;;;;;5073700;28;20097;-75
2022/04/06 06:42:50;;;;;;;25.67;11.52;;;11.20;99.90;;;;;;5055392;28;20090;-76
2022/04/06 06:45:17;;;;;;;23.10;10.48;;;11.40;98.40;;;;;;5073847;28;20032;-76
2022/04/06 06:47:44;;;;;;;19.73;10.73;;;11.60;97.60;;;;;;5055739;28;20028;-76
2022/04/06 06:50:11;;;;;;;18.90;10.50;;;11.80;97.00;;;;;;5055270;28;20028;-76
2022/04/06 06:52:37;;;;;;;17.75;9.57;;;12.00;94.00;;;;;;5073456;28;20025;-76
2022/04/06 06:55:05;;;;;;;22.92;10.32;;;12.20;90.50;;;;;;5072666;28;20024;-75
2022/04/06 06:57:31;;;;;;;41.78;16.70;;;12.40;93.80;;;;;;5073219;28;20542;-74
2022/04/06 06:59:58;;;;;;;36.47;16.92;;;12.50;91.60;;;;;;5072971;28;20031;-75
2022/04/06 07:02:24;;;;;;;28.67;11.60;;;12.90;91.80;;;;;;5055398;28;20097;-76
2022/04/06 07:04:49;;;;;;;24.02;12.27;;;13.10;93.90;;;;;;5055144;28;20021;-76
2022/04/06 07:07:16;;;;;;;18.83;10.25;;;13.30;88.10;;;;;;5073211;28;20020;-75
2022/04/06 07:09:42;;;;;;;33.28;15.10;;;13.50;82.90;;;;;;5073963;28;20031;-76
2022/04/06 07:12:08;;;;;;;241.35;105.32;;;13.80;83.50;;;;;;5076531;28;20020;-76
2022/04/06 07:14:34;;;;;;;56.08;25.95;;;13.90;77.30;;;;;;5076926;28;20081;-76
2022/04/06 07:17:00;;;;;;;21.95;11.02;;;14.10;79.50;;;;;;5076756;28;20021;-76
2022/04/06 07:19:26;;;;;;;43.72;20.20;;;14.30;71.30;;;;;;5076789;28;20032;-76
2022/04/06 07:21:52;;;;;;;23.05;11.55;;;14.40;70.50;;;;;;5076452;28;20464;-76
2022/04/06 07:24:18;;;;;;;19.40;9.90;;;14.70;71.90;;;;;;5076954;28;20036;-76
2022/04/06 07:26:44;;;;;;;30.10;10.88;;;15.10;67.70;;;;;;5076842;28;20028;-77
2022/04/06 07:29:15;;;;;;;18.95;10.80;;;15.20;67.20;;;;;;5076241;28;20025;-76
2022/04/06 07:31:44;;;;;;;20.10;13.25;;;15.40;69.00;;;;;;5076933;28;20064;-75
2022/04/06 07:34:10;;;;;;;26.10;11.25;;;15.70;65.50;;;;;;5076563;28;20032;-75
2022/04/06 07:36:37;;;;;;;28.83;13.82;;;15.90;63.90;;;;;;5076657;28;20046;-74
2022/04/06 07:39:06;;;;;;;25.48;13.02;;;16.10;62.30;;;;;;5076410;28;20418;-76
2022/04/06 07:41:32;;;;;;;20.15;12.25;;;16.40;61.40;;;;;;5076425;28;20039;-75
2022/04/06 07:43:58;;;;;;;29.92;17.25;;;16.50;63.50;;;;;;5076316;28;20047;-76
2022/04/06 07:46:24;;;;;;;27.98;14.75;;;16.60;60.60;;;;;;5076005;28;20032;-76
2022/04/06 07:48:50;;;;;;;30.13;13.32;;;16.80;59.00;;;;;;5076644;28;20435;-76
2022/04/06 07:51:17;;;;;;;34.20;14.02;;;17.10;58.20;;;;;;5076418;28;20063;-75
2022/04/06 07:53:43;;;;;;;25.70;15.10;;;17.20;58.90;;;;;;5075861;28;20029;-76
2022/04/06 07:56:09;;;;;;;31.75;14.02;;;17.40;56.70;;;;;;5076192;28;20024;-76
2022/04/06 07:58:35;;;;;;;22.65;13.18;;;17.60;56.40;;;;;;5078560;28;20094;-74
2022/04/06 08:01:08;;;;;;;19.95;10.88;;;17.80;55.60;;;;;;5094850;28;20118;-77
2022/04/06 08:03:35;;;;;;;19.00;10.60;;;18.10;55.00;;;;;;5096375;28;20028;-74
2022/04/06 08:06:02;;;;;;;20.27;10.95;;;18.40;54.30;;;;;;5094884;28;20368;-76
2022/04/06 08:08:28;;;;;;;23.10;11.25;;;18.60;53.40;;;;;;5095050;28;20035;-75
2022/04/06 08:10:53;;;;;;;23.05;11.68;;;18.80;52.00;;;;;;5096429;28;20036;-76
2022/04/06 08:13:19;;;;;;;26.67;11.00;;;19.10;51.10;;;;;;5096023;28;20061;-77
2022/04/06 08:15:45;;;;;;;20.17;11.23;;;19.40;49.60;;;;;;5093881;28;20119;-75
2022/04/06 08:18:11;;;;;;;23.67;10.57;;;19.60;50.40;;;;;;5095222;28;20032;-75
2022/04/06 08:20:37;;;;;;;22.50;9.65;;;19.80;49.40;;;;;;5093555;28;20028;-76
2022/04/06 08:23:12;;;;;;;20.15;11.85;;;19.90;49.00;;;;;;5095179;28;20032;-74
2022/04/06 08:25:39;;;;;;;18.20;10.30;;;20.10;48.40;;;;;;5060272;28;20063;-74
2022/04/06 08:28:43;;;;;;;20.77;11.32;;;20.00;46.50;;;;;;5080175;28;20047;-76
2022/04/06 08:31:09;;;;;;;16.02;9.38;;;20.40;50.20;;;;;;5094604;28;20373;-76
2022/04/06 08:33:38;;;;;;;17.38;10.25;;;20.80;48.00;;;;;;5095279;28;20573;-74
2022/04/06 08:36:06;;;;;;;15.90;8.80;;;20.90;46.30;;;;;;5095087;28;20051;-74
2022/04/06 08:38:38;;;;;;;14.88;9.27;;;21.30;43.70;;;;;;5094693;28;20064;-74
2022/04/06 08:41:06;;;;;;;11.60;7.72;;;21.60;44.20;;;;;;5094797;28;20213;-75
2022/04/06 08:43:37;;;;;;;12.70;7.65;;;21.70;42.60;;;;;;5094885;28;20481;-74
2022/04/06 08:46:03;;;;;;;21.63;10.95;;;21.60;41.70;;;;;;5094716;28;20074;-76
2022/04/06 08:48:29;;;;;;;24.92;13.63;;;22.00;42.90;;;;;;5094706;28;20454;-76
2022/04/06 08:50:59;;;;;;;23.50;11.77;;;22.10;43.20;;;;;;5094726;28;20032;-77
2022/04/06 08:53:24;;;;;;;23.17;10.75;;;22.30;43.40;;;;;;5094599;28;20089;-75
2022/04/06 08:55:50;;;;;;;18.52;9.52;;;22.40;43.60;;;;;;5094351;28;20028;-75
2022/04/06 08:58:16;;;;;;;16.45;9.43;;;22.40;42.90;;;;;;5084569;28;20048;-75
2022/04/06 09:00:42;;;;;;;26.27;12.05;;;22.50;41.10;;;;;;5074521;28;20367;-75
2022/04/06 09:03:07;;;;;;;30.88;13.88;;;22.30;40.70;;;;;;5074028;28;20033;-77
2022/04/06 09:05:34;;;;;;;31.98;15.05;;;22.40;39.70;;;;;;5074526;28;20032;-76
2022/04/06 09:08:01;;;;;;;34.60;15.18;;;22.70;41.80;;;;;;5056545;28;20402;-77
2022/04/06 09:10:28;;;;;;;30.98;16.15;;;23.30;40.70;;;;;;5056746;28;20031;-76
2022/04/06 09:13:13;;;;;;;46.67;19.35;;;23.10;39.90;;;;;;5074711;28;20020;-75
2022/04/06 09:15:39;;;;;;;22.40;11.13;;;23.00;40.60;;;;;;5074866;28;20021;-75
2022/04/06 09:18:06;;;;;;;21.17;8.85;;;23.20;40.50;;;;;;5074489;28;20035;-76
2022/04/06 09:20:32;;;;;;;18.88;8.95;;;23.20;41.60;;;;;;5073788;28;20034;-76
2022/04/06 09:23:02;;;;;;;14.02;7.43;;;;;;;;;;5074219;28;20025;-75
2022/04/06 09:25:34;;;;;;;11.93;7.65;;;23.80;38.80;;;;;;5074620;28;20044;-76
2022/04/06 09:28:11;;;;;;;10.95;6.95;;;24.00;39.10;;;;;;5074172;28;20429;-77
2022/04/06 09:30:47;;;;;;;11.23;7.10;;;24.10;34.20;;;;;;5074494;28;20111;-77
2022/04/06 09:33:14;;;;;;;15.15;7.50;;;24.70;34.20;;;;;;5074053;28;20024;-76
2022/04/06 09:35:41;;;;;;;16.80;7.15;;;24.50;37.40;;;;;;5074399;28;20052;-75
2022/04/06 09:38:13;;;;;;;16.02;7.15;;;;;;;;;;5073822;28;20111;-76
2022/04/06 09:40:39;;;;;;;17.48;7.35;;;;;;;;;;5074357;28;20038;-76
2022/04/06 09:43:06;;;;;;;18.23;8.10;;;;;;;;;;5074256;28;20029;-75
2022/04/06 09:48:17;;;;;;;10.93;6.07;;;;;;;;;;5073899;28;20027;-76
2022/04/06 09:50:54;;;;;;;12.32;7.32;;;;;;;;;;5074154;28;20024;-76
2022/04/06 09:53:25;;;;;;;9.70;6.40;;;;;;;;;;5073976;28;20024;-76
2022/04/06 09:55:53;;;;;;;9.25;6.25;;;;;;;;;;5073789;28;20070;-74
2022/04/06 09:58:21;;;;;;;9.25;5.45;;;;;;;;;;5073990;28;20040;-76
2022/04/06 10:00:47;;;;;;;17.23;6.20;;;;;;;;;;5055970;28;20082;-76
2022/04/06 10:03:18;;;;;;;6.25;5.63;;;;;;;;;;5073868;28;20047;-75
2022/04/06 10:05:48;;;;;;;11.63;5.65;;;;;;;;;;5073424;28;20461;-75
2022/04/06 10:08:16;;;;;;;8.93;5.35;;;;;;;;;;5073874;28;20020;-75
2022/04/06 10:10:43;;;;;;;7.13;5.85;;;;;;;;;;5073883;28;20029;-75
2022/04/06 10:13:09;;;;;;;10.10;6.72;;;;;;;;;;5073427;28;20021;-75
2022/04/06 10:15:36;;;;;;;9.95;7.45;;;;;;;;;;5055675;28;20031;-76
2022/04/06 10:18:02;;;;;;;10.93;5.68;;;;;;;;;;5073857;28;20118;-75
2022/04/06 10:20:48;;;;;;;11.80;6.15;;;;;;;;;;5073451;28;20060;-74
2022/04/06 10:23:40;;;;;;;9.05;6.00;;;;;;;;;;5073458;28;20021;-77
2022/04/06 10:26:27;;;;;;;7.53;5.90;;;;;;;;;;5073613;28;20028;-74
2022/04/06 10:28:54;;;;;;;8.48;6.32;;;;;;;;;;5073797;28;20017;-76
2022/04/06 10:31:24;;;;;;;17.60;7.68;;;;;;;;;;5073502;28;20029;-76
2022/04/06 10:33:51;;;;;;;8.35;6.55;;;;;;;;;;5073136;28;20433;-75
2022/04/06 10:36:26;;;;;;;7.60;6.03;;;;;;;;;;5073529;28;20099;-75
2022/04/06 10:39:07;;;;;;;8.15;6.28;;;;;;;;;;5073661;28;20111;-75
2022/04/06 10:41:39;;;;;;;7.50;6.00;;;;;;;;;;5073086;28;20071;-75
2022/04/06 10:44:05;;;;;;;9.65;6.70;;;;;;;;;;5073855;28;20120;-75
2022/04/06 10:46:38;;;;;;;6.63;5.20;;;;;;;;;;5059739;28;20020;-75
2022/04/06 10:49:07;;;;;;;7.80;5.47;;;;;;;;;;5077449;28;20119;-75
2022/04/06 10:51:35;;;;;;;6.18;5.55;;;;;;;;;;5077468;28;20025;-75
2022/04/06 10:54:13;;;;;;;8.18;6.28;;;;;;;;;;5077002;28;20020;-75
2022/04/06 10:56:55;;;;;;;7.72;6.90;;;;;;;;;;5077536;28;20490;-75
2022/04/06 10:59:22;;;;;;;8.98;5.93;;;;;;;;;;5092428;28;20044;-76
2022/04/06 11:01:48;;;;;;;16.42;6.03;;;;;;;;;;5097201;28;20036;-75
2022/04/06 11:04:21;;;;;;;8.63;5.80;;;;;;;;;;5098011;28;20212;-74
2022/04/06 11:06:49;;;;;;;12.85;7.22;;;;;;;;;;5096313;28;20024;-76
2022/04/06 11:12:17;;;;;;;6.30;4.95;;;;;;;;;;5097133;28;20088;-76
2022/04/06 11:14:44;;;;;;;5.65;4.45;;;;;;;;;;5097409;28;20024;-76
2022/04/06 11:17:34;;;;;;;8.10;5.10;;;;;;;;;;5097028;28;20072;-75
2022/04/06 11:20:01;;;;;;;11.57;7.25;;;;;;;;;;5095779;28;20062;-76
2022/04/06 11:22:28;;;;;;;9.85;6.57;;;;;;;;;;5096625;28;20031;-76
2022/04/06 11:24:54;;;;;;;8.73;5.75;;;;;;;;;;5095669;28;20420;-76
2022/04/06 11:27:30;;;;;;;13.05;7.55;;;;;;;;;;5097154;28;20060;-76
2022/04/06 11:30:09;;;;;;;9.52;6.28;;;;;;;;;;5096857;28;20016;-75
2022/04/06 11:32:36;;;;;;;6.60;5.93;;;;;;;;;;5096517;28;20095;-75
2022/04/06 11:35:10;;;;;;;10.15;7.30;;;;;;;;;;5096497;28;20016;-76
2022/04/06 11:37:40;;;;;;;17.40;11.20;;;;;;;;;;5096610;28;20477;-77
2022/04/06 11:40:07;;;;;;;20.35;11.60;;;;;;;;;;5096505;28;20012;-75
2022/04/06 11:42:33;;;;;;;11.35;8.30;;;;;;;;;;5096531;28;20103;-75
2022/04/06 11:44:59;;;;;;;8.95;7.75;;;;;;;;;;5096409;28;20103;-75
2022/04/06 11:47:36;;;;;;;16.30;10.80;;;;;;;;;;5095186;28;20107;-76
2022/04/06 11:50:05;;;;;;;14.02;8.80;;;;;;;;;;5096329;28;20074;-77
2022/04/06 11:52:32;;;;;;;8.65;5.72;;;;;;;;;;5096628;28;20059;-76
2022/04/06 11:54:58;;;;;;;5.90;4.20;;;;;;;;;;5096571;28;20024;-76
2022/04/06 11:57:34;;;;;;;9.75;5.40;;;;;;;;;;5091469;28;20063;-75
2022/04/06 12:00:01;;;;;;;6.55;5.47;;;;;;;;;;5075818;28;20078;-77
2022/04/06 12:02:27;;;;;;;7.68;5.90;;;;;;;;;;5058088;28;20463;-75
2022/04/06 12:05:00;;;;;;;7.53;4.80;;;;;;;;;;5075784;28;20543;-77
2022/04/06 12:07:26;;;;;;;5.70;4.57;;;;;;;;;;5075555;28;20360;-76
2022/04/06 12:09:52;;;;;;;8.93;5.55;;;;;;;;;;5075841;28;20069;-76
2022/04/06 12:12:18;;;;;;;12.57;6.22;;;;;;;;;;5075369;28;20033;-74
2022/04/06 12:14:45;;;;;;;9.70;4.90;;;;;;;;;;5076019;28;20107;-75
2022/04/06 12:17:13;;;;;;;4.97;4.40;;;;;;;;;;5075788;28;20049;-76
2022/04/06 12:19:40;;;;;;;6.97;5.65;;;;;;;;;;5075711;28;20104;-75
2022/04/06 12:22:07;;;;;;;8.23;4.50;;;;;;;;;;5075336;28;20035;-76
2022/04/06 12:24:41;;;;;;;7.20;4.72;;;;;;;;;;5075708;28;20468;-75
2022/04/06 12:27:07;;;;;;;5.68;5.13;;;;;;;;;;5075439;28;20023;-75
2022/04/06 12:29:35;;;;;;;5.18;4.60;;;;;;;;;;5075491;28;20100;-76
2022/04/06 12:32:06;;;;;;;4.50;4.10;;;;;;;;;;5075361;28;20485;-76
2022/04/06 12:34:33;;;;;;;6.43;4.18;;;;;;;;;;5057732;28;20032;-75
2022/04/06 12:37:29;;;;;;;6.47;4.40;;;;;;;;;;5075405;28;20017;-76
2022/04/06 12:39:50;;;;;;;6.10;3.97;;;;;;;;;;5074801;28;20375;-76
2022/04/06 12:42:16;;;;;;;4.10;3.67;;;;;;;;;;5075341;28;20025;-76
2022/04/06 12:44:55;;;;;;;3.83;3.42;;;;;;;;;;5075441;28;20021;-75
2022/04/06 12:47:23;;;;;;;7.90;3.70;;;;;;;;;;5057206;28;20024;-76
2022/04/06 12:49:49;;;;;;;5.70;5.07;;;;;;;;;;5075491;28;20032;-75
2022/04/06 12:52:18;;;;;;;7.72;4.28;;;;;;;;;;5075374;28;20035;-75
2022/04/06 12:54:51;;;;;;;6.10;4.63;;;;;;;;;;5075067;28;20033;-75
2022/04/06 12:57:28;;;;;;;6.10;4.35;;;;;;;;;;5074710;28;20025;-75
2022/04/06 12:59:56;;;;;;;10.23;5.60;;;;;;;;;;5074870;28;20431;-76
2022/04/06 13:02:27;;;;;;;12.45;5.80;;;;;;;;;;5074812;28;20032;-76
2022/04/06 13:04:54;;;;;;;6.40;4.85;;;;;;;;;;5057303;28;20454;-75
2022/04/06 13:07:20;;;;;;;12.00;5.88;;;;;;;;;;5074396;28;20021;-76
2022/04/06 13:09:50;;;;;;;10.77;6.32;;;;;;;;;;5074969;28;20024;-76
2022/04/06 13:12:17;;;;;;;10.70;6.07;;;;;;;;;;5074449;28;20099;-76
2022/04/06 13:14:44;;;;;;;10.23;6.07;;;;;;;;;;5054276;28;20486;-74
2022/04/06 13:17:10;;;;;;;10.48;7.20;;;;;;;;;;5064061;28;20016;-75
2022/04/06 13:19:36;;;;;;;12.07;7.30;;;;;;;;;;5064948;28;20060;-76